sensor_id;sensor_type;location;lat;lon;timestamp;temperature;humidity
12811;DHT22;6470;47.654;7.896;2022-12-18T00:04:23;-5.10;99.90
12811;DHT22;6470;47.654;7.896;2022-12-18T00:06:49;-4.90;99.90
12811;DHT22;6470;47.654;7.896;2022-12-18T00:09:15;-8.30;99.90
12811;DHT22;6470;47.654;7.896;2022-12-18T00:11:41;-5.00;99.90
12811;DHT22;6470;47.654;7.896;2022-12-18T00:14:09;-5.20;99.90
12811;DHT22;6470;47.654;7.896;2022-12-18T00:16:36;-5.10;99.90
12811;DHT22;6470;47.654;7.896;2022-12-18T00:19:03;-5.00;99.90
12811;DHT22;6470;47.654;7.896;2022-12-18T00:21:30;-5.50;99.90
12811;DHT22;6470;47.654;7.896;2022-12-18T00:23:57;-5.40;99.90
12811;DHT22;6470;47.654;7.896;2022-12-18T00:26:25;-8.80;99.90
12811;DHT22;6470;47.654;7.896;2022-12-18T00:28:52;-6.00;99.90
12811;DHT22;6470;47.654;7.896;2022-12-18T00:31:20;-4.80;99.90
12811;DHT22;6470;47.654;7.896;2022-12-18T00:33:46;-5.50;99.90
12811;DHT22;6470;47.654;7.896;2022-12-18T00:36:15;-5.90;99.90
12811;DHT22;6470;47.654;7.896;2022-12-18T00:38:41;-5.70;99.90
12811;DHT22;6470;47.654;7.896;2022-12-18T00:41:08;-8.10;99.90
12811;DHT22;6470;47.654;7.896;2022-12-18T00:43:34;-5.60;99.90
12811;DHT22;6470;47.654;7.896;2022-12-18T00:46:00;-8.80;99.90
12811;DHT22;6470;47.654;7.896;2022-12-18T00:48:26;-5.10;99.90
12811;DHT22;6470;47.654;7.896;2022-12-18T00:50:52;-5.60;99.90
12811;DHT22;6470;47.654;7.896;2022-12-18T00:53:18;-5.80;99.90
12811;DHT22;6470;47.654;7.896;2022-12-18T00:55:43;-5.60;99.90
12811;DHT22;6470;47.654;7.896;2022-12-18T00:58:10;-5.60;99.90
12811;DHT22;6470;47.654;7.896;2022-12-18T01:00:36;-5.20;99.90
12811;DHT22;6470;47.654;7.896;2022-12-18T01:03:02;-4.90;99.90
12811;DHT22;6470;47.654;7.896;2022-12-18T01:05:28;-7.80;99.90
12811;DHT22;6470;47.654;7.896;2022-12-18T01:07:55;-5.00;99.90
12811;DHT22;6470;47.654;7.896;2022-12-18T01:10:21;-5.00;99.90
12811;DHT22;6470;47.654;7.896;2022-12-18T01:12:47;-5.30;99.90
12811;DHT22;6470;47.654;7.896;2022-12-18T01:15:14;-5.70;99.90
12811;DHT22;6470;47.654;7.896;2022-12-18T01:17:40;-5.30;99.90
12811;DHT22;6470;47.654;7.896;2022-12-18T01:20:07;-5.30;99.90
12811;DHT22;6470;47.654;7.896;2022-12-18T01:22:34;-5.20;99.90
12811;DHT22;6470;47.654;7.896;2022-12-18T01:25:00;-5.50;99.90
12811;DHT22;6470;47.654;7.896;2022-12-18T01:27:26;-4.80;99.90
12811;DHT22;6470;47.654;7.896;2022-12-18T01:29:52;-4.30;99.90
12811;DHT22;6470;47.654;7.896;2022-12-18T01:32:18;-4.60;99.90
12811;DHT22;6470;47.654;7.896;2022-12-18T01:34:43;-4.40;99.90
12811;DHT22;6470;47.654;7.896;2022-12-18T01:37:09;-4.60;99.90
12811;DHT22;6470;47.654;7.896;2022-12-18T01:39:36;-4.20;99.90
12811;DHT22;6470;47.654;7.896;2022-12-18T01:42:12;-4.10;99.90
12811;DHT22;6470;47.654;7.896;2022-12-18T01:45:02;-4.20;99.90
12811;DHT22;6470;47.654;7.896;2022-12-18T01:47:45;-3.70;99.90
12811;DHT22;6470;47.654;7.896;2022-12-18T01:50:22;-3.70;99.90
12811;DHT22;6470;47.654;7.896;2022-12-18T01:52:54;-3.80;99.90
12811;DHT22;6470;47.654;7.896;2022-12-18T01:55:23;-3.70;99.90
12811;DHT22;6470;47.654;7.896;2022-12-18T01:57:52;-3.70;99.90
12811;DHT22;6470;47.654;7.896;2022-12-18T02:00:20;-3.30;99.90
12811;DHT22;6470;47.654;7.896;2022-12-18T02:02:46;-6.00;99.90
12811;DHT22;6470;47.654;7.896;2022-12-18T02:05:16;-3.00;99.90
12811;DHT22;6470;47.654;7.896;2022-12-18T02:08:06;-2.60;99.90
12811;DHT22;6470;47.654;7.896;2022-12-18T02:10:40;-3.20;99.90
12811;DHT22;6470;47.654;7.896;2022-12-18T02:13:14;-2.90;99.90
12811;DHT22;6470;47.654;7.896;2022-12-18T02:15:54;-3.30;99.90
12811;DHT22;6470;47.654;7.896;2022-12-18T02:18:36;-2.70;99.90
12811;DHT22;6470;47.654;7.896;2022-12-18T02:21:45;-3.50;99.90
12811;DHT22;6470;47.654;7.896;2022-12-18T02:26:48;-3.50;99.90
12811;DHT22;6470;47.654;7.896;2022-12-18T02:29:18;-3.40;99.90
12811;DHT22;6470;47.654;7.896;2022-12-18T02:31:53;-2.90;99.90
12811;DHT22;6470;47.654;7.896;2022-12-18T02:34:23;-5.60;99.90
12811;DHT22;6470;47.654;7.896;2022-12-18T02:36:51;-3.50;99.90
12811;DHT22;6470;47.654;7.896;2022-12-18T02:39:19;-6.00;99.90
12811;DHT22;6470;47.654;7.896;2022-12-18T02:41:47;-2.50;99.90
12811;DHT22;6470;47.654;7.896;2022-12-18T02:44:13;-3.30;99.90
12811;DHT22;6470;47.654;7.896;2022-12-18T02:46:42;-3.30;99.90
12811;DHT22;6470;47.654;7.896;2022-12-18T02:49:33;-2.70;99.90
12811;DHT22;6470;47.654;7.896;2022-12-18T02:58:26;-3.00;99.90
12811;DHT22;6470;47.654;7.896;2022-12-18T03:01:04;-2.40;99.90
12811;DHT22;6470;47.654;7.896;2022-12-18T03:03:38;-2.40;99.90
12811;DHT22;6470;47.654;7.896;2022-12-18T03:06:12;-3.10;99.90
12811;DHT22;6470;47.654;7.896;2022-12-18T03:08:43;-2.40;99.90
12811;DHT22;6470;47.654;7.896;2022-12-18T03:11:12;-3.00;99.90
12811;DHT22;6470;47.654;7.896;2022-12-18T03:13:48;-3.60;99.90
12811;DHT22;6470;47.654;7.896;2022-12-18T03:16:20;-2.70;99.90
12811;DHT22;6470;47.654;7.896;2022-12-18T03:18:49;-3.50;99.90
12811;DHT22;6470;47.654;7.896;2022-12-18T03:21:21;-2.80;99.90
12811;DHT22;6470;47.654;7.896;2022-12-18T03:23:49;-2.80;99.90
12811;DHT22;6470;47.654;7.896;2022-12-18T03:26:19;-2.80;99.90
12811;DHT22;6470;47.654;7.896;2022-12-18T03:28:57;-2.80;99.90
12811;DHT22;6470;47.654;7.896;2022-12-18T03:31:28;-2.90;99.90
12811;DHT22;6470;47.654;7.896;2022-12-18T03:34:09;-2.70;99.90
12811;DHT22;6470;47.654;7.896;2022-12-18T03:39:02;-2.80;99.90
12811;DHT22;6470;47.654;7.896;2022-12-18T03:47:15;-6.00;99.90
12811;DHT22;6470;47.654;7.896;2022-12-18T03:50:16;-2.90;99.90
12811;DHT22;6470;47.654;7.896;2022-12-18T03:52:49;-3.00;99.90
12811;DHT22;6470;47.654;7.896;2022-12-18T03:55:19;-3.00;99.90
12811;DHT22;6470;47.654;7.896;2022-12-18T03:57:47;-2.80;99.90
12811;DHT22;6470;47.654;7.896;2022-12-18T04:00:16;-2.80;99.90
12811;DHT22;6470;47.654;7.896;2022-12-18T04:02:51;-2.90;99.90
12811;DHT22;6470;47.654;7.896;2022-12-18T04:05:19;-2.80;99.90
12811;DHT22;6470;47.654;7.896;2022-12-18T04:07:47;-3.10;99.90
12811;DHT22;6470;47.654;7.896;2022-12-18T04:10:16;-2.80;99.90
12811;DHT22;6470;47.654;7.896;2022-12-18T04:12:42;-3.00;99.90
12811;DHT22;6470;47.654;7.896;2022-12-18T04:15:08;-5.50;99.90
12811;DHT22;6470;47.654;7.896;2022-12-18T04:17:34;-2.80;99.90
12811;DHT22;6470;47.654;7.896;2022-12-18T04:22:26;-2.90;99.90
12811;DHT22;6470;47.654;7.896;2022-12-18T04:27:18;-4.40;99.90
12811;DHT22;6470;47.654;7.896;2022-12-18T04:29:44;-3.80;99.90
12811;DHT22;6470;47.654;7.896;2022-12-18T04:32:09;-3.10;99.90
12811;DHT22;6470;47.654;7.896;2022-12-18T04:34:35;-3.40;99.90
12811;DHT22;6470;47.654;7.896;2022-12-18T04:37:01;-3.70;99.90
12811;DHT22;6470;47.654;7.896;2022-12-18T04:39:27;-3.50;99.90
12811;DHT22;6470;47.654;7.896;2022-12-18T04:41:52;-5.30;99.90
12811;DHT22;6470;47.654;7.896;2022-12-18T04:46:44;-3.30;99.90
12811;DHT22;6470;47.654;7.896;2022-12-18T04:49:10;-2.90;99.90
12811;DHT22;6470;47.654;7.896;2022-12-18T04:51:38;-3.30;99.90
12811;DHT22;6470;47.654;7.896;2022-12-18T04:54:04;-2.50;99.90
12811;DHT22;6470;47.654;7.896;2022-12-18T04:56:31;-2.70;99.90
12811;DHT22;6470;47.654;7.896;2022-12-18T04:58:57;-2.80;99.90
12811;DHT22;6470;47.654;7.896;2022-12-18T05:03:51;-3.60;99.90
12811;DHT22;6470;47.654;7.896;2022-12-18T05:06:16;-3.20;99.90
12811;DHT22;6470;47.654;7.896;2022-12-18T05:08:42;-2.80;99.90
12811;DHT22;6470;47.654;7.896;2022-12-18T05:11:10;-2.70;99.90
12811;DHT22;6470;47.654;7.896;2022-12-18T05:13:37;-3.00;99.90
12811;DHT22;6470;47.654;7.896;2022-12-18T05:16:03;-2.80;99.90
12811;DHT22;6470;47.654;7.896;2022-12-18T05:18:29;-3.30;99.90
12811;DHT22;6470;47.654;7.896;2022-12-18T05:20:55;-3.30;99.90
12811;DHT22;6470;47.654;7.896;2022-12-18T05:23:23;-2.80;99.90
12811;DHT22;6470;47.654;7.896;2022-12-18T05:26:01;-3.40;99.90
12811;DHT22;6470;47.654;7.896;2022-12-18T05:28:28;-3.70;99.90
12811;DHT22;6470;47.654;7.896;2022-12-18T05:30:57;-3.00;99.90
12811;DHT22;6470;47.654;7.896;2022-12-18T05:33:25;-5.50;99.90
12811;DHT22;6470;47.654;7.896;2022-12-18T05:35:52;-2.60;99.90
12811;DHT22;6470;47.654;7.896;2022-12-18T05:38:19;-2.70;99.90
12811;DHT22;6470;47.654;7.896;2022-12-18T05:40:45;-2.70;99.90
12811;DHT22;6470;47.654;7.896;2022-12-18T05:43:11;-3.10;99.90
12811;DHT22;6470;47.654;7.896;2022-12-18T05:45:40;-2.20;99.90
12811;DHT22;6470;47.654;7.896;2022-12-18T05:48:06;-2.80;99.90
12811;DHT22;6470;47.654;7.896;2022-12-18T05:50:39;-2.80;99.90
12811;DHT22;6470;47.654;7.896;2022-12-18T05:53:06;-2.70;99.90
12811;DHT22;6470;47.654;7.896;2022-12-18T05:55:39;-2.80;99.90
12811;DHT22;6470;47.654;7.896;2022-12-18T05:58:07;-3.20;99.90
12811;DHT22;6470;47.654;7.896;2022-12-18T06:00:34;-3.40;99.90
12811;DHT22;6470;47.654;7.896;2022-12-18T06:03:00;-3.40;99.90
12811;DHT22;6470;47.654;7.896;2022-12-18T06:05:26;-3.70;99.90
12811;DHT22;6470;47.654;7.896;2022-12-18T06:07:53;-3.20;99.90
12811;DHT22;6470;47.654;7.896;2022-12-18T06:10:19;-5.70;99.90
12811;DHT22;6470;47.654;7.896;2022-12-18T06:12:44;-2.80;99.90
12811;DHT22;6470;47.654;7.896;2022-12-18T06:15:10;-2.60;99.90
12811;DHT22;6470;47.654;7.896;2022-12-18T06:20:03;-5.60;99.90
12811;DHT22;6470;47.654;7.896;2022-12-18T06:22:31;-2.80;99.90
12811;DHT22;6470;47.654;7.896;2022-12-18T06:24:57;-2.50;99.90
12811;DHT22;6470;47.654;7.896;2022-12-18T06:27:23;-3.20;99.90
12811;DHT22;6470;47.654;7.896;2022-12-18T06:29:49;-3.00;99.90
12811;DHT22;6470;47.654;7.896;2022-12-18T06:34:40;-2.90;99.90
12811;DHT22;6470;47.654;7.896;2022-12-18T06:37:06;-3.50;99.90
12811;DHT22;6470;47.654;7.896;2022-12-18T06:39:32;-2.60;99.90
12811;DHT22;6470;47.654;7.896;2022-12-18T06:41:57;-2.60;99.90
12811;DHT22;6470;47.654;7.896;2022-12-18T06:46:49;-3.10;99.90
12811;DHT22;6470;47.654;7.896;2022-12-18T06:51:41;-3.00;99.90
12811;DHT22;6470;47.654;7.896;2022-12-18T06:56:34;-2.60;99.90
12811;DHT22;6470;47.654;7.896;2022-12-18T06:58:59;-3.10;99.90
12811;DHT22;6470;47.654;7.896;2022-12-18T07:01:25;-3.40;99.90
12811;DHT22;6470;47.654;7.896;2022-12-18T07:03:55;-2.70;99.90
12811;DHT22;6470;47.654;7.896;2022-12-18T07:06:23;-3.30;99.90
12811;DHT22;6470;47.654;7.896;2022-12-18T07:08:49;-2.60;99.90
12811;DHT22;6470;47.654;7.896;2022-12-18T07:11:16;-2.60;99.90
12811;DHT22;6470;47.654;7.896;2022-12-18T07:13:43;-2.30;99.90
12811;DHT22;6470;47.654;7.896;2022-12-18T07:16:11;-2.70;99.90
12811;DHT22;6470;47.654;7.896;2022-12-18T07:18:37;-2.70;99.90
12811;DHT22;6470;47.654;7.896;2022-12-18T07:21:09;-2.60;99.90
12811;DHT22;6470;47.654;7.896;2022-12-18T07:23:35;-2.80;99.90
12811;DHT22;6470;47.654;7.896;2022-12-18T07:26:20;-2.70;99.90
12811;DHT22;6470;47.654;7.896;2022-12-18T07:28:47;-2.90;99.90
12811;DHT22;6470;47.654;7.896;2022-12-18T07:31:15;-3.00;99.90
12811;DHT22;6470;47.654;7.896;2022-12-18T07:33:41;-2.40;99.90
12811;DHT22;6470;47.654;7.896;2022-12-18T07:36:08;-2.80;99.90
12811;DHT22;6470;47.654;7.896;2022-12-18T07:38:35;-2.40;99.90
12811;DHT22;6470;47.654;7.896;2022-12-18T07:41:12;-2.70;99.90
12811;DHT22;6470;47.654;7.896;2022-12-18T07:43:39;-3.10;99.90
12811;DHT22;6470;47.654;7.896;2022-12-18T07:46:05;-2.70;99.90
12811;DHT22;6470;47.654;7.896;2022-12-18T07:48:31;-2.20;99.90
12811;DHT22;6470;47.654;7.896;2022-12-18T07:51:01;-3.00;99.90
12811;DHT22;6470;47.654;7.896;2022-12-18T07:53:27;-2.70;99.90
12811;DHT22;6470;47.654;7.896;2022-12-18T07:55:57;-2.20;99.90
12811;DHT22;6470;47.654;7.896;2022-12-18T07:58:22;-2.20;99.90
12811;DHT22;6470;47.654;7.896;2022-12-18T08:03:14;-2.60;99.90
12811;DHT22;6470;47.654;7.896;2022-12-18T08:05:40;-2.50;99.90
12811;DHT22;6470;47.654;7.896;2022-12-18T08:08:06;-2.70;99.90
12811;DHT22;6470;47.654;7.896;2022-12-18T08:10:31;-2.30;99.90
12811;DHT22;6470;47.654;7.896;2022-12-18T08:12:57;-2.60;99.90
12811;DHT22;6470;47.654;7.896;2022-12-18T08:17:49;-2.20;99.90
12811;DHT22;6470;47.654;7.896;2022-12-18T08:22:41;-1.50;99.90
12811;DHT22;6470;47.654;7.896;2022-12-18T08:25:08;-1.80;99.90
12811;DHT22;6470;47.654;7.896;2022-12-18T08:27:34;-1.70;99.90
12811;DHT22;6470;47.654;7.896;2022-12-18T08:30:00;-1.60;99.90
12811;DHT22;6470;47.654;7.896;2022-12-18T08:32:27;-1.60;99.90
12811;DHT22;6470;47.654;7.896;2022-12-18T08:34:53;-1.10;99.90
12811;DHT22;6470;47.654;7.896;2022-12-18T08:37:18;-1.40;99.90
12811;DHT22;6470;47.654;7.896;2022-12-18T08:39:44;-1.10;99.90
12811;DHT22;6470;47.654;7.896;2022-12-18T08:42:10;2.70;99.90
12811;DHT22;6470;47.654;7.896;2022-12-18T08:44:54;-1.00;99.90
12811;DHT22;6470;47.654;7.896;2022-12-18T08:47:20;2.20;99.90
12811;DHT22;6470;47.654;7.896;2022-12-18T08:49:45;2.50;99.90
12811;DHT22;6470;47.654;7.896;2022-12-18T08:57:03;2.50;99.90
12811;DHT22;6470;47.654;7.896;2022-12-18T08:59:29;2.10;99.90
12811;DHT22;6470;47.654;7.896;2022-12-18T09:01:55;-2.20;99.90
12811;DHT22;6470;47.654;7.896;2022-12-18T09:04:21;2.60;99.90
12811;DHT22;6470;47.654;7.896;2022-12-18T09:06:47;2.20;99.90
12811;DHT22;6470;47.654;7.896;2022-12-18T09:09:13;1.90;99.90
12811;DHT22;6470;47.654;7.896;2022-12-18T09:11:39;2.30;99.90
12811;DHT22;6470;47.654;7.896;2022-12-18T09:14:04;2.10;99.90
12811;DHT22;6470;47.654;7.896;2022-12-18T09:16:31;-0.30;99.90
12811;DHT22;6470;47.654;7.896;2022-12-18T09:18:57;1.90;99.90
12811;DHT22;6470;47.654;7.896;2022-12-18T09:21:30;2.90;99.90
12811;DHT22;6470;47.654;7.896;2022-12-18T09:23:56;2.50;99.90
12811;DHT22;6470;47.654;7.896;2022-12-18T09:26:23;2.30;99.90
12811;DHT22;6470;47.654;7.896;2022-12-18T09:28:50;2.50;99.90
12811;DHT22;6470;47.654;7.896;2022-12-18T09:31:16;2.10;99.90
12811;DHT22;6470;47.654;7.896;2022-12-18T09:36:13;2.40;99.90
12811;DHT22;6470;47.654;7.896;2022-12-18T09:38:38;2.70;99.90
12811;DHT22;6470;47.654;7.896;2022-12-18T09:41:32;2.70;99.90
12811;DHT22;6470;47.654;7.896;2022-12-18T09:44:03;-1.70;99.90
12811;DHT22;6470;47.654;7.896;2022-12-18T09:46:34;0.10;99.90
12811;DHT22;6470;47.654;7.896;2022-12-18T09:49:07;2.30;99.90
12811;DHT22;6470;47.654;7.896;2022-12-18T09:51:40;2.20;99.90
12811;DHT22;6470;47.654;7.896;2022-12-18T09:54:30;1.90;99.90
12811;DHT22;6470;47.654;7.896;2022-12-18T09:56:57;2.60;99.90
12811;DHT22;6470;47.654;7.896;2022-12-18T09:59:30;2.50;99.90
12811;DHT22;6470;47.654;7.896;2022-12-18T10:01:57;-1.40;99.90
12811;DHT22;6470;47.654;7.896;2022-12-18T10:04:25;2.90;99.90
12811;DHT22;6470;47.654;7.896;2022-12-18T10:10:17;-1.90;99.90
12811;DHT22;6470;47.654;7.896;2022-12-18T10:13:06;-1.80;99.90
12811;DHT22;6470;47.654;7.896;2022-12-18T10:21:15;2.40;99.90
12811;DHT22;6470;47.654;7.896;2022-12-18T10:23:53;2.80;99.90
12811;DHT22;6470;47.654;7.896;2022-12-18T10:26:22;-1.90;99.90
12811;DHT22;6470;47.654;7.896;2022-12-18T10:28:48;-1.80;99.90
12811;DHT22;6470;47.654;7.896;2022-12-18T10:31:18;2.70;99.90
12811;DHT22;6470;47.654;7.896;2022-12-18T10:33:44;-1.70;99.90
12811;DHT22;6470;47.654;7.896;2022-12-18T10:36:10;2.30;99.90
12811;DHT22;6470;47.654;7.896;2022-12-18T10:38:36;-1.30;99.90
12811;DHT22;6470;47.654;7.896;2022-12-18T10:41:22;1.70;99.90
12811;DHT22;6470;47.654;7.896;2022-12-18T10:44:20;2.70;99.90
12811;DHT22;6470;47.654;7.896;2022-12-18T10:46:51;2.90;99.90
12811;DHT22;6470;47.654;7.896;2022-12-18T10:49:28;2.70;99.90
12811;DHT22;6470;47.654;7.896;2022-12-18T10:52:21;2.60;99.90
12811;DHT22;6470;47.654;7.896;2022-12-18T10:54:59;2.80;99.90
12811;DHT22;6470;47.654;7.896;2022-12-18T10:57:32;4.00;99.90
12811;DHT22;6470;47.654;7.896;2022-12-18T11:00:05;2.70;99.90
12811;DHT22;6470;47.654;7.896;2022-12-18T11:02:38;-0.50;99.90
12811;DHT22;6470;47.654;7.896;2022-12-18T11:07:51;-0.50;99.90
12811;DHT22;6470;47.654;7.896;2022-12-18T11:10:21;2.50;99.90
12811;DHT22;6470;47.654;7.896;2022-12-18T11:12:47;-0.50;99.90
12811;DHT22;6470;47.654;7.896;2022-12-18T11:15:20;3.10;99.90
12811;DHT22;6470;47.654;7.896;2022-12-18T11:17:48;2.50;99.90
12811;DHT22;6470;47.654;7.896;2022-12-18T11:20:42;2.30;99.90
12811;DHT22;6470;47.654;7.896;2022-12-18T11:23:12;2.70;99.90
12811;DHT22;6470;47.654;7.896;2022-12-18T11:25:38;2.20;99.90
12811;DHT22;6470;47.654;7.896;2022-12-18T11:29:07;2.70;99.90
12811;DHT22;6470;47.654;7.896;2022-12-18T11:31:27;3.00;99.90
12811;DHT22;6470;47.654;7.896;2022-12-18T11:34:00;-1.00;99.90
12811;DHT22;6470;47.654;7.896;2022-12-18T11:36:33;2.40;99.90
12811;DHT22;6470;47.654;7.896;2022-12-18T11:39:07;3.20;99.90
12811;DHT22;6470;47.654;7.896;2022-12-18T11:41:41;3.10;99.90
12811;DHT22;6470;47.654;7.896;2022-12-18T11:44:46;3.20;99.90
12811;DHT22;6470;47.654;7.896;2022-12-18T11:47:52;3.10;99.90
12811;DHT22;6470;47.654;7.896;2022-12-18T11:50:24;2.90;99.90
12811;DHT22;6470;47.654;7.896;2022-12-18T11:52:51;2.30;99.90
12811;DHT22;6470;47.654;7.896;2022-12-18T12:01:13;-0.40;99.90
12811;DHT22;6470;47.654;7.896;2022-12-18T12:17:37;3.20;99.90
12811;DHT22;6470;47.654;7.896;2022-12-18T12:20:27;3.00;99.90
12811;DHT22;6470;47.654;7.896;2022-12-18T12:23:31;3.00;99.90
12811;DHT22;6470;47.654;7.896;2022-12-18T12:26:04;2.90;99.90
12811;DHT22;6470;47.654;7.896;2022-12-18T12:31:39;2.80;99.90
12811;DHT22;6470;47.654;7.896;2022-12-18T12:36:58;3.40;99.90
12811;DHT22;6470;47.654;7.896;2022-12-18T12:39:33;3.30;99.90
12811;DHT22;6470;47.654;7.896;2022-12-18T12:42:02;3.00;99.90
12811;DHT22;6470;47.654;7.896;2022-12-18T12:44:51;3.10;99.90
12811;DHT22;6470;47.654;7.896;2022-12-18T12:47:32;3.10;99.90
12811;DHT22;6470;47.654;7.896;2022-12-18T12:50:01;3.40;99.90
12811;DHT22;6470;47.654;7.896;2022-12-18T12:52:37;2.90;99.90
12811;DHT22;6470;47.654;7.896;2022-12-18T12:55:13;3.30;99.90
12811;DHT22;6470;47.654;7.896;2022-12-18T12:57:45;0.70;99.90
12811;DHT22;6470;47.654;7.896;2022-12-18T13:00:18;3.10;99.90
12811;DHT22;6470;47.654;7.896;2022-12-18T13:08:25;2.90;99.90
12811;DHT22;6470;47.654;7.896;2022-12-18T13:10:55;2.60;99.90
12811;DHT22;6470;47.654;7.896;2022-12-18T13:13:56;2.50;99.90
12811;DHT22;6470;47.654;7.896;2022-12-18T13:16:25;2.30;99.90
12811;DHT22;6470;47.654;7.896;2022-12-18T13:18:56;3.20;99.90
12811;DHT22;6470;47.654;7.896;2022-12-18T13:21:32;2.40;99.90
12811;DHT22;6470;47.654;7.896;2022-12-18T13:24:27;2.80;99.90
12811;DHT22;6470;47.654;7.896;2022-12-18T13:26:56;2.40;99.90
12811;DHT22;6470;47.654;7.896;2022-12-18T13:29:43;-0.40;99.90
12811;DHT22;6470;47.654;7.896;2022-12-18T13:32:23;-0.40;99.90
12811;DHT22;6470;47.654;7.896;2022-12-18T13:37:54;2.80;99.90
12811;DHT22;6470;47.654;7.896;2022-12-18T13:45:49;2.80;99.90
12811;DHT22;6470;47.654;7.896;2022-12-18T13:48:21;2.50;99.90
12811;DHT22;6470;47.654;7.896;2022-12-18T13:51:00;3.20;99.90
12811;DHT22;6470;47.654;7.896;2022-12-18T13:53:34;2.30;99.90
12811;DHT22;6470;47.654;7.896;2022-12-18T13:56:02;2.30;99.90
12811;DHT22;6470;47.654;7.896;2022-12-18T13:58:28;2.20;99.90
12811;DHT22;6470;47.654;7.896;2022-12-18T14:03:25;2.60;99.90
12811;DHT22;6470;47.654;7.896;2022-12-18T14:05:58;2.40;99.90
12811;DHT22;6470;47.654;7.896;2022-12-18T14:08:30;2.70;99.90
12811;DHT22;6470;47.654;7.896;2022-12-18T14:10:57;2.40;99.90
12811;DHT22;6470;47.654;7.896;2022-12-18T14:13:28;2.50;99.90
12811;DHT22;6470;47.654;7.896;2022-12-18T14:15:55;2.50;99.90
12811;DHT22;6470;47.654;7.896;2022-12-18T14:19:08;3.00;99.90
12811;DHT22;6470;47.654;7.896;2022-12-18T14:21:21;2.10;99.90
12811;DHT22;6470;47.654;7.896;2022-12-18T14:23:48;2.60;99.90
12811;DHT22;6470;47.654;7.896;2022-12-18T14:28:47;2.60;99.90
12811;DHT22;6470;47.654;7.896;2022-12-18T14:31:24;2.90;99.90
12811;DHT22;6470;47.654;7.896;2022-12-18T14:33:50;2.90;99.90
12811;DHT22;6470;47.654;7.896;2022-12-18T14:36:18;-1.30;99.90
12811;DHT22;6470;47.654;7.896;2022-12-18T14:38:52;-1.00;99.90
12811;DHT22;6470;47.654;7.896;2022-12-18T14:41:20;2.70;99.90
12811;DHT22;6470;47.654;7.896;2022-12-18T14:43:51;2.90;99.90
12811;DHT22;6470;47.654;7.896;2022-12-18T14:46:41;2.50;99.90
12811;DHT22;6470;47.654;7.896;2022-12-18T14:49:32;1.50;99.90
12811;DHT22;6470;47.654;7.896;2022-12-18T14:52:06;2.50;99.90
12811;DHT22;6470;47.654;7.896;2022-12-18T14:54:45;2.60;99.90
12811;DHT22;6470;47.654;7.896;2022-12-18T14:57:24;0.90;99.90
12811;DHT22;6470;47.654;7.896;2022-12-18T14:59:52;2.90;99.90
12811;DHT22;6470;47.654;7.896;2022-12-18T15:02:27;2.40;99.90
12811;DHT22;6470;47.654;7.896;2022-12-18T15:05:03;1.00;99.90
12811;DHT22;6470;47.654;7.896;2022-12-18T15:07:43;2.50;99.90
12811;DHT22;6470;47.654;7.896;2022-12-18T15:10:13;2.60;99.90
12811;DHT22;6470;47.654;7.896;2022-12-18T15:17:59;2.40;99.90
12811;DHT22;6470;47.654;7.896;2022-12-18T15:20:26;3.10;99.90
12811;DHT22;6470;47.654;7.896;2022-12-18T15:22:52;2.00;99.90
12811;DHT22;6470;47.654;7.896;2022-12-18T15:25:36;0.70;99.90
12811;DHT22;6470;47.654;7.896;2022-12-18T15:28:03;2.80;99.90
12811;DHT22;6470;47.654;7.896;2022-12-18T15:31:04;2.70;99.90
12811;DHT22;6470;47.654;7.896;2022-12-18T15:33:36;2.40;99.90
12811;DHT22;6470;47.654;7.896;2022-12-18T15:36:05;2.40;99.90
12811;DHT22;6470;47.654;7.896;2022-12-18T15:38:33;2.90;99.90
12811;DHT22;6470;47.654;7.896;2022-12-18T15:41:00;3.00;99.90
12811;DHT22;6470;47.654;7.896;2022-12-18T15:43:26;2.70;99.90
12811;DHT22;6470;47.654;7.896;2022-12-18T15:46:06;0.40;99.90
12811;DHT22;6470;47.654;7.896;2022-12-18T15:48:34;2.70;99.90
12811;DHT22;6470;47.654;7.896;2022-12-18T15:51:01;2.40;99.90
12811;DHT22;6470;47.654;7.896;2022-12-18T15:53:33;-1.80;99.90
12811;DHT22;6470;47.654;7.896;2022-12-18T15:55:59;2.40;99.90
12811;DHT22;6470;47.654;7.896;2022-12-18T15:58:43;-2.00;99.90
12811;DHT22;6470;47.654;7.896;2022-12-18T16:01:10;0.30;99.90
12811;DHT22;6470;47.654;7.896;2022-12-18T16:03:36;2.40;99.90
12811;DHT22;6470;47.654;7.896;2022-12-18T16:08:29;2.60;99.90
12811;DHT22;6470;47.654;7.896;2022-12-18T16:10:56;2.40;99.90
12811;DHT22;6470;47.654;7.896;2022-12-18T16:13:22;2.20;99.90
12811;DHT22;6470;47.654;7.896;2022-12-18T16:15:47;2.60;99.90
12811;DHT22;6470;47.654;7.896;2022-12-18T16:18:13;1.80;99.90
12811;DHT22;6470;47.654;7.896;2022-12-18T16:20:39;2.50;99.90
12811;DHT22;6470;47.654;7.896;2022-12-18T16:23:05;2.60;99.90
12811;DHT22;6470;47.654;7.896;2022-12-18T16:27:57;2.70;99.90
12811;DHT22;6470;47.654;7.896;2022-12-18T16:30:26;1.90;99.90
12811;DHT22;6470;47.654;7.896;2022-12-18T16:32:53;2.50;99.90
12811;DHT22;6470;47.654;7.896;2022-12-18T16:35:19;-0.20;99.90
12811;DHT22;6470;47.654;7.896;2022-12-18T16:40:13;-0.10;99.90
12811;DHT22;6470;47.654;7.896;2022-12-18T16:42:40;3.00;99.90
12811;DHT22;6470;47.654;7.896;2022-12-18T16:45:08;2.10;99.90
12811;DHT22;6470;47.654;7.896;2022-12-18T16:50:03;2.00;99.90
12811;DHT22;6470;47.654;7.896;2022-12-18T16:52:28;1.90;99.90
12811;DHT22;6470;47.654;7.896;2022-12-18T16:54:54;1.60;99.90
12811;DHT22;6470;47.654;7.896;2022-12-18T16:57:21;2.10;99.90
12811;DHT22;6470;47.654;7.896;2022-12-18T16:59:47;1.80;99.90
12811;DHT22;6470;47.654;7.896;2022-12-18T17:02:21;1.50;99.90
12811;DHT22;6470;47.654;7.896;2022-12-18T17:04:47;2.60;99.90
12811;DHT22;6470;47.654;7.896;2022-12-18T17:07:14;-0.10;99.90
12811;DHT22;6470;47.654;7.896;2022-12-18T17:09:40;2.10;99.90
12811;DHT22;6470;47.654;7.896;2022-12-18T17:12:07;0.00;99.90
12811;DHT22;6470;47.654;7.896;2022-12-18T17:14:35;-2.70;99.90
12811;DHT22;6470;47.654;7.896;2022-12-18T17:17:01;0.00;99.90
12811;DHT22;6470;47.654;7.896;2022-12-18T17:19:27;2.70;99.90
12811;DHT22;6470;47.654;7.896;2022-12-18T17:21:54;1.60;99.90
12811;DHT22;6470;47.654;7.896;2022-12-18T17:24:20;2.50;99.90
12811;DHT22;6470;47.654;7.896;2022-12-18T17:26:47;-0.20;99.90
12811;DHT22;6470;47.654;7.896;2022-12-18T17:29:18;2.00;99.90
12811;DHT22;6470;47.654;7.896;2022-12-18T17:31:45;2.50;99.90
12811;DHT22;6470;47.654;7.896;2022-12-18T17:34:11;1.70;99.90
12811;DHT22;6470;47.654;7.896;2022-12-18T17:36:37;2.00;99.90
12811;DHT22;6470;47.654;7.896;2022-12-18T17:39:04;1.80;99.90
12811;DHT22;6470;47.654;7.896;2022-12-18T17:43:59;1.80;99.90
12811;DHT22;6470;47.654;7.896;2022-12-18T17:46:26;2.50;99.90
12811;DHT22;6470;47.654;7.896;2022-12-18T17:48:59;2.30;99.90
12811;DHT22;6470;47.654;7.896;2022-12-18T17:51:25;-0.30;99.90
12811;DHT22;6470;47.654;7.896;2022-12-18T17:53:51;-0.30;99.90
12811;DHT22;6470;47.654;7.896;2022-12-18T17:56:19;1.60;99.90
12811;DHT22;6470;47.654;7.896;2022-12-18T17:58:46;-0.60;99.90
12811;DHT22;6470;47.654;7.896;2022-12-18T18:01:14;2.30;99.90
12811;DHT22;6470;47.654;7.896;2022-12-18T18:03:40;2.20;99.90
12811;DHT22;6470;47.654;7.896;2022-12-18T18:06:06;2.30;99.90
12811;DHT22;6470;47.654;7.896;2022-12-18T18:08:33;-2.00;99.90
12811;DHT22;6470;47.654;7.896;2022-12-18T18:11:03;2.20;99.90
12811;DHT22;6470;47.654;7.896;2022-12-18T18:13:49;2.80;99.90
12811;DHT22;6470;47.654;7.896;2022-12-18T18:19:00;-0.40;99.90
12811;DHT22;6470;47.654;7.896;2022-12-18T18:21:27;2.40;99.90
12811;DHT22;6470;47.654;7.896;2022-12-18T18:23:53;2.50;99.90
12811;DHT22;6470;47.654;7.896;2022-12-18T18:26:19;2.40;99.90